createdAt,value
2023-11-29T00:01:07.581Z,99691.72
2023-11-29T00:03:34.038Z,99670.13
2023-11-29T00:06:00.620Z,99668.78
2023-11-29T00:08:27.301Z,99669.56
2023-11-29T00:10:53.947Z,99657.97
2023-11-29T00:13:21.289Z,99649.09
2023-11-29T00:15:48.575Z,99629.53
2023-11-29T00:18:15.863Z,99641.44
2023-11-29T00:20:42.638Z,99638.19
2023-11-29T00:23:09.468Z,99631.78
2023-11-29T00:25:35.933Z,99619.38
2023-11-29T00:28:02.856Z,99622.09
2023-11-29T00:30:30.432Z,99629.75
2023-11-29T00:32:57.903Z,99616.13
2023-11-29T00:35:25.483Z,99619.31
2023-11-29T00:37:52.113Z,99617.72
2023-11-29T00:40:19.105Z,99616.47
2023-11-29T00:42:45.890Z,99618.41
2023-11-29T00:45:12.662Z,99593.09
2023-11-29T00:47:39.574Z,99607.16
2023-11-29T00:50:07.215Z,99607.16
2023-11-29T00:52:33.757Z,99599.81
2023-11-29T00:55:00.267Z,99593.41
2023-11-29T00:57:26.849Z,99593.75
2023-11-29T00:59:53.427Z,99596.88
2023-11-29T01:02:20.081Z,99585.00
2023-11-29T01:04:46.702Z,99584.41
2023-11-29T01:07:13.380Z,99577.56
2023-11-29T01:09:39.835Z,99580.38
2023-11-29T01:12:06.531Z,99563.16
2023-11-29T01:14:33.076Z,99573.84
2023-11-29T01:16:59.652Z,99562.94
2023-11-29T01:19:26.191Z,99572.94
2023-11-29T01:21:52.692Z,99571.69
2023-11-29T01:24:19.458Z,99574.50
2023-11-29T01:26:46.062Z,99566.38
2023-11-29T01:29:12.821Z,99577.19
2023-11-29T01:31:39.404Z,99582.38
2023-11-29T01:34:05.977Z,99586.75
2023-11-29T01:36:33.673Z,99582.72
2023-11-29T01:39:00.241Z,99581.13
2023-11-29T01:41:27.508Z,99575.50
2023-11-29T01:43:55.941Z,99581.13
2023-11-29T01:46:22.540Z,99571.34
2023-11-29T01:48:49.098Z,99555.69
2023-11-29T01:51:15.778Z,99569.31
2023-11-29T01:53:43.915Z,99564.47
2023-11-29T01:56:10.886Z,99552.75
2023-11-29T01:58:37.827Z,99566.38
2023-11-29T02:01:04.373Z,99557.47
2023-11-29T02:03:31.371Z,99553.56
2023-11-29T02:05:58.456Z,99559.06
2023-11-29T02:08:25.581Z,99550.28
2023-11-29T02:10:52.213Z,99550.28
2023-11-29T02:13:19.081Z,99552.53
2023-11-29T02:15:46.202Z,99556.13
2023-11-29T02:18:14.641Z,99554.56
2023-11-29T02:20:41.432Z,99549.25
2023-11-29T02:23:25.959Z,99538.78
2023-11-29T02:25:52.487Z,99537.56
2023-11-29T02:28:19.065Z,99532.72
2023-11-29T02:30:45.804Z,99530.66
2023-11-29T02:33:12.437Z,99527.41
2023-11-29T02:35:39.107Z,99525.72
2023-11-29T02:38:05.541Z,99511.66
2023-11-29T02:40:32.933Z,99495.22
2023-11-29T02:43:01.338Z,99489.47
2023-11-29T02:45:28.387Z,99496.66
2023-11-29T02:47:55.894Z,99492.63
2023-11-29T02:50:22.515Z,99491.34
2023-11-29T02:52:49.488Z,99499.81
2023-11-29T02:55:16.034Z,99489.34
2023-11-29T02:57:42.598Z,99490.13
2023-11-29T03:00:10.447Z,99497.31
2023-11-29T03:02:37.122Z,99490.44
2023-11-29T03:05:03.923Z,99491.69
2023-11-29T03:07:31.411Z,99489.22
2023-11-29T03:09:57.881Z,99490.78
2023-11-29T03:12:24.366Z,99482.69
2023-11-29T03:14:51.002Z,99492.34
2023-11-29T03:17:17.647Z,99495.50
2023-11-29T03:19:44.146Z,99486.28
2023-11-29T03:22:10.574Z,99486.59
2023-11-29T03:24:37.073Z,99462.53
2023-11-29T03:27:03.626Z,99468.00
2023-11-29T03:29:30.147Z,99468.00
2023-11-29T03:31:57.215Z,99457.66
2023-11-29T03:34:24.643Z,99455.97
2023-11-29T03:36:51.227Z,99461.47
2023-11-29T03:39:17.700Z,99461.47
2023-11-29T03:41:44.269Z,99456.63
2023-11-29T03:44:10.882Z,99454.56
2023-11-29T03:46:37.404Z,99448.63
2023-11-29T03:49:04.649Z,99443.66
2023-11-29T03:51:38.055Z,99439.59
2023-11-29T03:54:08.527Z,99433.19
2023-11-29T03:56:35.096Z,99423.28
2023-11-29T03:59:01.608Z,99425.84
2023-11-29T04:01:33.260Z,99432.25
2023-11-29T04:03:59.940Z,99414.84
2023-11-29T04:06:27.783Z,99418.97
2023-11-29T04:08:55.556Z,99409.59
2023-11-29T04:11:24.237Z,99409.75
2023-11-29T04:13:51.029Z,99411.19
2023-11-29T04:16:21.631Z,99406.34
2023-11-29T04:18:49.364Z,99408.69
2023-11-29T04:21:28.418Z,99401.63
2023-11-29T04:23:56.459Z,99403.06
2023-11-29T04:26:27.944Z,99404.63
2023-11-29T04:28:56.801Z,99389.44
2023-11-29T04:31:24.926Z,99390.22
2023-11-29T04:33:51.585Z,99387.41
2023-11-29T04:36:18.347Z,99386.03
2023-11-29T04:38:45.959Z,99381.19
2023-11-29T04:41:12.609Z,99378.03
2023-11-29T04:43:39.147Z,99378.69
2023-11-29T04:46:05.693Z,99373.84
2023-11-29T04:48:32.257Z,99371.47
2023-11-29T04:50:58.751Z,99370.72
2023-11-29T04:53:25.386Z,99365.06
2023-11-29T04:55:53.807Z,99372.13
2023-11-29T04:58:23.092Z,99362.91
2023-11-29T05:00:49.902Z,99366.50
2023-11-29T05:03:16.868Z,99350.53
2023-11-29T05:05:43.867Z,99358.53
2023-11-29T05:08:10.650Z,99362.78
2023-11-29T05:10:38.223Z,99361.19
2023-11-29T05:13:05.289Z,99354.31
2023-11-29T05:15:34.289Z,99356.69
2023-11-29T05:18:05.406Z,99357.44
2023-11-29T05:20:32.295Z,99352.28
2023-11-29T05:22:58.965Z,99351.34
2023-11-29T05:25:26.128Z,99353.06
2023-11-29T05:27:52.640Z,99348.53
2023-11-29T05:30:19.539Z,99332.41
2023-11-29T05:32:47.224Z,99337.28
2023-11-29T05:35:14.683Z,99340.41
2023-11-29T05:37:42.238Z,99339.63
2023-11-29T05:40:09.664Z,99342.00
2023-11-29T05:42:36.899Z,99323.66
2023-11-29T05:45:04.950Z,99329.94
2023-11-29T05:47:31.895Z,99330.72
2023-11-29T05:50:00.991Z,99316.19
2023-11-29T05:52:27.910Z,99324.63
2023-11-29T05:54:54.504Z,99324.16
2023-11-29T05:57:21.013Z,99332.63
2023-11-29T05:59:48.026Z,99336.19
2023-11-29T06:02:15.580Z,99331.34
2023-11-29T06:04:42.194Z,99323.69
2023-11-29T06:07:08.711Z,99332.16
2023-11-29T06:09:37.814Z,99332.16
2023-11-29T06:12:04.858Z,99322.59
2023-11-29T06:14:31.420Z,99317.75
2023-11-29T06:16:57.947Z,99330.41
2023-11-29T06:19:24.444Z,99324.00
2023-11-29T06:21:50.960Z,99317.75
2023-11-29T06:24:18.628Z,99327.94
2023-11-29T06:26:46.404Z,99332.78
2023-11-29T06:29:13.147Z,99332.78
2023-11-29T06:31:39.675Z,99325.91
2023-11-29T06:34:08.827Z,99325.91
2023-11-29T06:36:38.313Z,99330.31
2023-11-29T06:39:05.243Z,99321.50
2023-11-29T06:41:31.933Z,99314.44
2023-11-29T06:43:58.807Z,99327.03
2023-11-29T06:46:25.355Z,99310.25
2023-11-29T06:48:51.888Z,99306.19
2023-11-29T06:51:18.357Z,99309.00
2023-11-29T06:53:44.923Z,99301.34
2023-11-29T06:56:11.775Z,99311.66
2023-11-29T06:58:39.236Z,99318.88
2023-11-29T07:01:08.510Z,99300.25
2023-11-29T07:03:35.145Z,99309.00
2023-11-29T07:06:02.150Z,99307.94
2023-11-29T07:08:29.141Z,99308.38
2023-11-29T07:10:55.731Z,99314.78
2023-11-29T07:13:22.220Z,99309.97
2023-11-29T07:15:48.817Z,99310.91
2023-11-29T07:18:15.454Z,99310.28
2023-11-29T07:20:46.171Z,99320.31
2023-11-29T07:23:13.796Z,99318.72
2023-11-29T07:25:40.466Z,99318.72
2023-11-29T07:28:06.945Z,99323.91
2023-11-29T07:30:33.521Z,99317.16
2023-11-29T07:33:00.146Z,99314.66
2023-11-29T07:35:27.203Z,99324.38
2023-11-29T07:37:53.740Z,99323.59
2023-11-29T07:40:22.287Z,99330.31
2023-11-29T07:42:50.214Z,99323.13
2023-11-29T07:45:16.917Z,99320.31
2023-11-29T07:47:44.741Z,99317.03
2023-11-29T07:50:15.652Z,99323.75
2023-11-29T07:52:42.587Z,99319.84
2023-11-29T07:55:09.689Z,99320.94
2023-11-29T07:57:36.170Z,99318.56
2023-11-29T08:00:05.169Z,99320.94
2023-11-29T08:02:38.808Z,99326.56
2023-11-29T08:05:05.708Z,99306.69
2023-11-29T08:07:34.112Z,99321.72
2023-11-29T08:10:02.886Z,99328.13
2023-11-29T08:12:30.181Z,99326.56
2023-11-29T08:14:56.739Z,99316.22
2023-11-29T08:17:23.369Z,99309.81
2023-11-29T08:19:50.016Z,99324.84
2023-11-29T08:22:16.542Z,99314.53
2023-11-29T08:24:43.117Z,99318.44
2023-11-29T08:27:10.472Z,99312.34
2023-11-29T08:29:37.916Z,99319.69
2023-11-29T08:32:04.794Z,99315.16
2023-11-29T08:34:31.279Z,99312.81
2023-11-29T08:36:57.764Z,99328.75
2023-11-29T08:39:24.277Z,99320.81
2023-11-29T08:41:50.881Z,99325.94
2023-11-29T08:44:17.517Z,99320.31
2023-11-29T08:46:44.630Z,99325.47
2023-11-29T08:49:11.320Z,99327.84
2023-11-29T08:51:37.919Z,99309.84
2023-11-29T08:54:04.850Z,99300.75
2023-11-29T08:56:31.327Z,99309.84
2023-11-29T08:58:57.917Z,99308.91
2023-11-29T09:01:24.512Z,99306.88
2023-11-29T09:03:51.477Z,99306.88
2023-11-29T09:06:18.371Z,99311.56
2023-11-29T09:08:45.761Z,99307.19
2023-11-29T09:11:12.941Z,99309.88
2023-11-29T09:13:40.168Z,99308.75
2023-11-29T09:16:08.378Z,99314.69
2023-11-29T09:18:35.505Z,99305.94
2023-11-29T09:21:03.868Z,99321.44
2023-11-29T09:23:30.584Z,99314.53
2023-11-29T09:25:57.154Z,99314.53
2023-11-29T09:28:23.626Z,99308.13
2023-11-29T09:30:50.163Z,99304.84
2023-11-29T09:33:16.894Z,99315.19
2023-11-29T09:35:44.229Z,99310.50
2023-11-29T09:38:11.796Z,99311.25
2023-11-29T09:40:38.384Z,99306.28
2023-11-29T09:43:07.167Z,99309.56
2023-11-29T09:45:33.908Z,99304.22
2023-11-29T09:48:01.550Z,99308.63
2023-11-29T09:50:28.972Z,99309.41
2023-11-29T09:52:56.460Z,99298.13
2023-11-29T09:55:23.014Z,99297.19
2023-11-29T09:57:49.681Z,99300.94
2023-11-29T10:00:17.999Z,99294.06
2023-11-29T10:02:44.804Z,99303.47
2023-11-29T10:05:18.798Z,99305.03
2023-11-29T10:07:46.485Z,99290.63
2023-11-29T10:10:14.069Z,99295.31
2023-11-29T10:12:45.451Z,99292.81
2023-11-29T10:15:12.916Z,99283.28
2023-11-29T10:17:43.242Z,99288.75
2023-11-29T10:20:12.884Z,99284.81
2023-11-29T10:22:39.514Z,99280.59
2023-11-29T10:25:19.196Z,99286.25
2023-11-29T10:27:46.704Z,99280.59
2023-11-29T10:30:14.598Z,99273.41
2023-11-29T10:32:42.654Z,99281.25
2023-11-29T10:35:14.500Z,99275.28
2023-11-29T10:37:45.936Z,99279.66
2023-11-29T10:40:15.544Z,99282.78
2023-11-29T10:42:51.277Z,99270.75
2023-11-29T10:45:21.961Z,99277.94
2023-11-29T10:47:59.689Z,99278.72
2023-11-29T10:50:29.074Z,99270.75
2023-11-29T10:52:55.664Z,99288.28
2023-11-29T10:55:23.819Z,99266.50
2023-11-29T10:57:58.268Z,99276.22
2023-11-29T11:00:30.092Z,99276.22
2023-11-29T11:02:57.092Z,99270.56
2023-11-29T11:05:25.244Z,99271.69
2023-11-29T11:07:53.467Z,99264.00
2023-11-29T11:10:27.027Z,99260.09
2023-11-29T11:12:56.905Z,99261.19
2023-11-29T11:15:29.329Z,99261.97
2023-11-29T11:18:01.807Z,99263.53
2023-11-29T11:20:51.429Z,99264.00
2023-11-29T11:23:28.289Z,99250.84
2023-11-29T11:25:57.658Z,99245.53
2023-11-29T11:28:38.498Z,99247.56
2023-11-29T11:31:10.171Z,99238.78
2023-11-29T11:34:09.291Z,99247.09
2023-11-29T11:36:37.270Z,99241.75
2023-11-29T11:39:04.361Z,99238.94
2023-11-29T11:41:34.593Z,99230.16
2023-11-29T11:44:01.062Z,99233.00
2023-11-29T11:46:28.649Z,99228.44
2023-11-29T11:48:55.438Z,99237.69
2023-11-29T11:51:22.331Z,99232.34
2023-11-29T11:53:49.014Z,99236.44
2023-11-29T11:56:23.132Z,99225.63
2023-11-29T11:58:50.796Z,99239.25
2023-11-29T12:01:17.271Z,99236.75
2023-11-29T12:03:43.966Z,99234.69
2023-11-29T12:06:10.991Z,99233.94
2023-11-29T12:08:38.720Z,99243.50
2023-11-29T12:11:08.603Z,99234.41
2023-11-29T12:13:35.861Z,99234.22
2023-11-29T12:16:13.221Z,99230.81
2023-11-29T12:18:41.016Z,99222.00
2023-11-29T12:21:08.322Z,99225.94
2023-11-29T12:23:37.691Z,99222.34
2023-11-29T12:26:04.856Z,99225.31
2023-11-29T12:28:33.558Z,99226.88
2023-11-29T12:31:00.649Z,99223.59
2023-11-29T12:33:27.364Z,99220.75
2023-11-29T12:35:54.096Z,99220.47
2023-11-29T12:38:20.769Z,99229.22
2023-11-29T12:40:49.228Z,99235.16
2023-11-29T12:43:15.866Z,99228.75
2023-11-29T12:45:42.476Z,99230.28
2023-11-29T12:48:09.012Z,99230.78
2023-11-29T12:50:36.355Z,99227.00
2023-11-29T12:53:02.889Z,99227.19
2023-11-29T12:55:29.430Z,99232.66
2023-11-29T12:57:56.510Z,99235.81
2023-11-29T13:00:23.131Z,99225.47
2023-11-29T13:02:49.853Z,99227.00
2023-11-29T13:05:16.473Z,99238.16
2023-11-29T13:07:42.928Z,99232.66
2023-11-29T13:10:09.744Z,99231.88
2023-11-29T13:12:36.917Z,99237.69
2023-11-29T13:15:04.805Z,99246.91
2023-11-29T13:17:31.873Z,99246.13
2023-11-29T13:19:58.389Z,99237.34
2023-11-29T13:22:24.928Z,99237.34
2023-11-29T13:24:52.112Z,99237.81
2023-11-29T13:27:18.715Z,99241.75
2023-11-29T13:29:45.369Z,99242.97
2023-11-29T13:32:14.387Z,99242.97
2023-11-29T13:34:41.728Z,99248.63
2023-11-29T13:37:08.975Z,99242.03
2023-11-29T13:39:35.642Z,99246.91
2023-11-29T13:42:02.229Z,99256.63
2023-11-29T13:44:29.699Z,99258.97
2023-11-29T13:46:56.976Z,99258.19
2023-11-29T13:49:23.922Z,99251.44
2023-11-29T13:52:00.998Z,99261.00
2023-11-29T13:54:35.773Z,99267.44
2023-11-29T13:57:03.015Z,99270.25
2023-11-29T13:59:29.679Z,99263.06
2023-11-29T14:01:56.419Z,99272.75
2023-11-29T14:04:23.314Z,99256.47
2023-11-29T14:06:50.025Z,99277.94
2023-11-29T14:09:16.478Z,99288.44
2023-11-29T14:11:44.427Z,99296.91
2023-11-29T14:14:10.956Z,99296.09
2023-11-29T14:16:39.748Z,99305.38
2023-11-29T14:19:06.440Z,99308.19
2023-11-29T14:21:33.111Z,99314.31
2023-11-29T14:23:59.695Z,99316.31
2023-11-29T14:26:26.256Z,99320.41
2023-11-29T14:28:52.740Z,99323.22
2023-11-29T14:31:20.032Z,99327.28
2023-11-29T14:33:46.700Z,99331.34
2023-11-29T14:36:13.622Z,99335.16
2023-11-29T14:38:40.277Z,99339.22
2023-11-29T14:41:12.011Z,99340.78
2023-11-29T14:43:39.315Z,99349.72
2023-11-29T14:46:06.129Z,99362.69
2023-11-29T14:48:33.716Z,99369.13
2023-11-29T14:51:01.707Z,99369.28
2023-11-29T14:53:28.210Z,99378.03
2023-11-29T14:55:55.048Z,99387.13
2023-11-29T14:58:24.819Z,99378.66
2023-11-29T15:00:51.346Z,99376.78
2023-11-29T15:03:17.862Z,99389.63
2023-11-29T15:05:44.485Z,99389.63
2023-11-29T15:08:11.632Z,99381.81
2023-11-29T15:10:38.228Z,99399.81
2023-11-29T15:13:04.724Z,99390.38
2023-11-29T15:15:31.210Z,99402.78
2023-11-29T15:17:58.979Z,99403.56
2023-11-29T15:20:26.554Z,99408.41
2023-11-29T15:22:53.041Z,99410.94
2023-11-29T15:25:21.324Z,99415.28
2023-11-29T15:27:48.496Z,99435.97
2023-11-29T15:30:15.807Z,99431.59
2023-11-29T15:32:42.523Z,99439.28
2023-11-29T15:35:09.278Z,99449.75
2023-11-29T15:37:35.906Z,99454.75
2023-11-29T15:40:02.406Z,99446.63
2023-11-29T15:42:29.612Z,99463.53
2023-11-29T15:44:56.332Z,99463.22
2023-11-29T15:47:23.294Z,99468.06
2023-11-29T15:49:49.905Z,99482.16
2023-11-29T15:52:16.913Z,99491.06
2023-11-29T15:54:43.435Z,99495.16
2023-11-29T15:57:10.185Z,99494.34
2023-11-29T15:59:37.024Z,99490.44
2023-11-29T16:02:03.741Z,99507.34
2023-11-29T16:04:30.543Z,99505.78
2023-11-29T16:06:57.033Z,99509.84
2023-11-29T16:09:23.572Z,99506.69
2023-11-29T16:11:52.484Z,99512.69
2023-11-29T16:14:19.212Z,99522.38
2023-11-29T16:16:45.766Z,99516.06
2023-11-29T16:19:12.355Z,99527.34
2023-11-29T16:21:39.710Z,99528.59
2023-11-29T16:24:06.455Z,99530.16
2023-11-29T16:26:32.964Z,99527.81
2023-11-29T16:28:59.755Z,99529.06
2023-11-29T16:31:27.803Z,99536.09
2023-11-29T16:33:55.086Z,99542.97
2023-11-29T16:36:21.842Z,99539.22
2023-11-29T16:38:48.371Z,99564.59
2023-11-29T16:41:17.009Z,99558.63
2023-11-29T16:43:46.328Z,99563.94
2023-11-29T16:46:12.955Z,99570.81
2023-11-29T16:48:39.755Z,99574.88
2023-11-29T16:51:07.113Z,99590.53
2023-11-29T16:53:33.912Z,99587.72
2023-11-29T16:56:03.354Z,99594.28
2023-11-29T16:58:29.784Z,99593.50
2023-11-29T17:00:56.290Z,99595.50
2023-11-29T17:03:22.953Z,99589.88
2023-11-29T17:05:49.686Z,99581.72
2023-11-29T17:08:16.280Z,99587.06
2023-11-29T17:10:42.785Z,99588.13
2023-11-29T17:13:09.271Z,99604.88
2023-11-29T17:15:36.863Z,99617.41
2023-11-29T17:18:03.648Z,99622.59
2023-11-29T17:20:30.795Z,99620.25
2023-11-29T17:22:57.256Z,99618.66
2023-11-29T17:25:23.933Z,99625.88
2023-11-29T17:27:50.473Z,99623.97
2023-11-29T17:30:17.061Z,99631.19
2023-11-29T17:32:44.387Z,99642.47
2023-11-29T17:35:12.253Z,99641.34
2023-11-29T17:37:40.670Z,99639.88
2023-11-29T17:40:08.546Z,99645.38
2023-11-29T17:42:35.122Z,99651.81
2023-11-29T17:45:01.815Z,99662.28
2023-11-29T17:47:28.369Z,99663.53
2023-11-29T17:49:54.807Z,99662.09
2023-11-29T17:52:21.361Z,99667.28
2023-11-29T17:54:48.269Z,99673.16
2023-11-29T17:57:14.770Z,99679.00
2023-11-29T17:59:41.226Z,99686.00
2023-11-29T18:02:07.908Z,99694.00
2023-11-29T18:04:35.425Z,99695.69
2023-11-29T18:07:01.957Z,99697.41
2023-11-29T18:09:29.174Z,99687.50
2023-11-29T18:11:55.715Z,99693.13
2023-11-29T18:14:22.282Z,99696.41
2023-11-29T18:16:49.038Z,99698.88
2023-11-29T18:19:16.677Z,99698.44
2023-11-29T18:21:43.240Z,99714.19
2023-11-29T18:24:09.913Z,99708.25
2023-11-29T18:26:36.403Z,99711.28
2023-11-29T18:29:02.894Z,99717.91
2023-11-29T18:31:29.469Z,99719.59
2023-11-29T18:33:55.954Z,99726.50
2023-11-29T18:36:22.440Z,99724.25
2023-11-29T18:38:50.523Z,99719.06
2023-11-29T18:41:17.199Z,99726.25
2023-11-29T18:43:43.696Z,99723.81
2023-11-29T18:46:10.703Z,99729.06
2023-11-29T18:48:37.442Z,99731.69
2023-11-29T18:51:04.264Z,99726.38
2023-11-29T18:53:31.610Z,99725.72
2023-11-29T18:55:59.531Z,99721.78
2023-11-29T18:58:26.066Z,99728.19
2023-11-29T19:00:52.510Z,99741.94
2023-11-29T19:03:19.237Z,99732.34
2023-11-29T19:05:46.753Z,99741.25
2023-11-29T19:08:13.593Z,99741.72
2023-11-29T19:10:42.079Z,99745.44
2023-11-29T19:13:08.741Z,99750.28
2023-11-29T19:15:35.336Z,99755.91
2023-11-29T19:18:01.940Z,99756.81
2023-11-29T19:20:28.498Z,99765.69
2023-11-29T19:22:55.054Z,99774.59
2023-11-29T19:25:21.597Z,99775.41
2023-11-29T19:27:48.154Z,99767.84
2023-11-29T19:30:14.916Z,99770.66
2023-11-29T19:32:41.533Z,99771.88
2023-11-29T19:35:18.306Z,99776.41
2023-11-29T19:37:51.940Z,99770.88
2023-11-29T19:40:18.454Z,99779.75
2023-11-29T19:42:44.949Z,99776.16
2023-11-29T19:45:11.729Z,99778.66
2023-11-29T19:47:38.630Z,99777.50
2023-11-29T19:50:06.254Z,99776.63
2023-11-29T19:52:40.962Z,99773.91
2023-11-29T19:55:14.324Z,99773.22
2023-11-29T19:57:41.011Z,99780.00
2023-11-29T20:00:08.163Z,99783.25
2023-11-29T20:02:34.739Z,99780.44
2023-11-29T20:05:01.753Z,99783.25
2023-11-29T20:07:28.328Z,99783.38
2023-11-29T20:09:55.009Z,99795.41
2023-11-29T20:12:21.601Z,99793.47
2023-11-29T20:17:15.876Z,99794.69
2023-11-29T20:19:42.478Z,99800.78
2023-11-29T20:22:08.978Z,99800.00
2023-11-29T20:24:35.556Z,99805.28
2023-11-29T20:27:02.166Z,99797.41
2023-11-29T20:29:28.638Z,99807.41
2023-11-29T20:31:55.107Z,99801.78
2023-11-29T20:34:30.661Z,99798.31
2023-11-29T20:37:05.970Z,99804.81
2023-11-29T20:39:33.595Z,99808.41
2023-11-29T20:42:00.574Z,99804.91
2023-11-29T20:44:28.365Z,99810.44
2023-11-29T20:46:55.123Z,99811.66
2023-11-29T20:49:22.241Z,99815.47
2023-11-29T20:51:49.110Z,99813.09
2023-11-29T20:54:17.065Z,99820.66
2023-11-29T20:56:44.168Z,99817.50
2023-11-29T20:59:13.253Z,99813.09
2023-11-29T21:01:40.271Z,99799.25
2023-11-29T21:04:10.008Z,99800.38
2023-11-29T21:06:38.148Z,99806.81
2023-11-29T21:09:06.144Z,99818.94
2023-11-29T21:11:34.995Z,99817.34
2023-11-29T21:14:01.453Z,99823.44
2023-11-29T21:16:27.999Z,99831.06
2023-11-29T21:18:55.203Z,99820.72
2023-11-29T21:21:21.916Z,99824.41
2023-11-29T21:23:48.502Z,99825.53
2023-11-29T21:26:14.990Z,99834.44
2023-11-29T21:28:41.509Z,99829.34
2023-11-29T21:31:08.058Z,99835.31
2023-11-29T21:33:35.270Z,99842.94
2023-11-29T21:36:01.964Z,99837.00
2023-11-29T21:38:28.577Z,99829.88
2023-11-29T21:40:55.366Z,99830.75
2023-11-29T21:43:22.072Z,99828.41
2023-11-29T21:45:48.592Z,99834.81
2023-11-29T21:48:15.229Z,99827.28
2023-11-29T21:50:41.880Z,99827.72
2023-11-29T21:53:09.081Z,99824.47
2023-11-29T21:55:35.884Z,99822.53
2023-11-29T21:58:02.398Z,99814.09
2023-11-29T22:00:29.411Z,99815.66
2023-11-29T22:02:55.971Z,99814.09
2023-11-29T22:05:24.370Z,99824.53
2023-11-29T22:07:51.317Z,99839.03
2023-11-29T22:10:18.265Z,99837.47
2023-11-29T22:12:44.769Z,99835.53
2023-11-29T22:15:11.356Z,99835.19
2023-11-29T22:17:38.061Z,99841.16
2023-11-29T22:20:05.096Z,99830.91
2023-11-29T22:22:31.526Z,99833.63
2023-11-29T22:24:58.099Z,99824.94
2023-11-29T22:27:24.578Z,99838.53
2023-11-29T22:29:51.208Z,99828.09
2023-11-29T22:32:17.700Z,99817.03
2023-11-29T22:34:44.188Z,99828.19
2023-11-29T22:37:11.636Z,99828.19
2023-11-29T22:39:39.672Z,99831.88
2023-11-29T22:42:06.236Z,99827.38
2023-11-29T22:44:32.764Z,99824.22
2023-11-29T22:46:59.278Z,99833.09
2023-11-29T22:49:26.273Z,99833.66
2023-11-29T22:51:52.853Z,99841.97
2023-11-29T22:54:19.489Z,99840.91
2023-11-29T22:56:46.060Z,99840.91
2023-11-29T22:59:12.513Z,99832.06
2023-11-29T23:01:39.176Z,99838.22
2023-11-29T23:04:05.813Z,99831.72
2023-11-29T23:06:32.972Z,99827.75
2023-11-29T23:08:59.939Z,99824.16
2023-11-29T23:11:26.513Z,99829.88
2023-11-29T23:13:53.221Z,99831.44
2023-11-29T23:16:20.139Z,99828.63
2023-11-29T23:18:48.051Z,99830.31
2023-11-29T23:21:14.788Z,99843.13
2023-11-29T23:23:41.447Z,99838.38
2023-11-29T23:26:07.922Z,99847.94
2023-11-29T23:28:34.795Z,99848.81
2023-11-29T23:31:01.804Z,99847.59
2023-11-29T23:33:28.973Z,99845.25
2023-11-29T23:35:57.147Z,99849.25
2023-11-29T23:38:24.008Z,99852.94
2023-11-29T23:40:50.542Z,99851.28
2023-11-29T23:43:17.116Z,99852.06
2023-11-29T23:45:43.601Z,99850.50
2023-11-29T23:48:10.814Z,99857.00
2023-11-29T23:50:37.425Z,99861.75
2023-11-29T23:53:03.902Z,99852.16
2023-11-29T23:55:30.696Z,99842.59
2023-11-29T23:57:57.526Z,99857.34
